createdAt,value
2023-04-16T00:00:50.282Z,3.60
2023-04-16T00:03:17.139Z,3.90
2023-04-16T00:05:43.792Z,4.30
2023-04-16T00:08:10.377Z,4.30
2023-04-16T00:10:37.153Z,4.35
2023-04-16T00:13:03.703Z,3.65
2023-04-16T00:15:30.199Z,4.23
2023-04-16T00:17:56.766Z,4.30
2023-04-16T00:20:23.521Z,4.30
2023-04-16T00:22:51.524Z,4.22
2023-04-16T00:25:18.027Z,4.30
2023-04-16T00:27:44.532Z,4.00
2023-04-16T00:30:11.348Z,4.07
2023-04-16T00:32:37.892Z,4.20
2023-04-16T00:35:04.861Z,4.35
2023-04-16T00:37:31.431Z,4.55
2023-04-16T00:39:57.947Z,4.17
2023-04-16T00:42:24.487Z,4.10
2023-04-16T00:44:51.015Z,4.57
2023-04-16T00:47:17.687Z,4.50
2023-04-16T00:49:44.513Z,4.18
2023-04-16T00:52:12.055Z,4.57
2023-04-16T00:54:39.669Z,4.32
2023-04-16T00:57:06.474Z,4.38
2023-04-16T00:59:35.728Z,4.10
2023-04-16T01:02:02.315Z,4.55
2023-04-16T01:04:31.076Z,4.13
2023-04-16T01:06:57.772Z,4.47
2023-04-16T01:09:24.332Z,4.05
2023-04-16T01:11:50.857Z,4.05
2023-04-16T01:14:17.387Z,4.95
2023-04-16T01:16:46.247Z,4.90
2023-04-16T01:19:12.756Z,5.22
2023-04-16T01:21:39.290Z,5.15
2023-04-16T01:24:06.060Z,5.30
2023-04-16T01:26:32.638Z,5.40
2023-04-16T01:29:00.082Z,6.23
2023-04-16T01:31:26.674Z,5.90
2023-04-16T01:33:53.284Z,6.10
2023-04-16T01:36:19.977Z,5.82
2023-04-16T01:38:46.607Z,6.70
2023-04-16T01:41:13.231Z,6.80
2023-04-16T01:43:40.481Z,7.43
2023-04-16T01:46:24.092Z,5.82
2023-04-16T01:48:50.673Z,6.32
2023-04-16T01:51:17.211Z,6.20
2023-04-16T01:53:43.770Z,5.60
2023-04-16T01:56:10.289Z,5.80
2023-04-16T01:58:36.847Z,5.55
2023-04-16T02:01:04.572Z,5.75
2023-04-16T02:03:31.708Z,5.07
2023-04-16T02:05:58.361Z,5.13
2023-04-16T02:08:24.955Z,5.40
2023-04-16T02:10:51.478Z,5.30
2023-04-16T02:13:18.050Z,5.43
2023-04-16T02:15:50.422Z,5.22
2023-04-16T02:18:17.149Z,5.23
2023-04-16T02:20:47.121Z,5.70
2023-04-16T02:23:15.222Z,5.05
2023-04-16T02:25:43.231Z,5.60
2023-04-16T02:28:11.070Z,4.95
2023-04-16T02:30:38.429Z,5.33
2023-04-16T02:33:07.443Z,5.43
2023-04-16T02:35:34.917Z,5.00
2023-04-16T02:38:02.161Z,5.63
2023-04-16T02:40:29.646Z,5.55
2023-04-16T02:42:56.363Z,5.23
2023-04-16T02:45:23.817Z,5.03
2023-04-16T02:47:50.855Z,5.85
2023-04-16T02:50:18.082Z,6.15
2023-04-16T02:52:44.644Z,6.20
2023-04-16T02:55:11.544Z,7.20
2023-04-16T02:57:38.114Z,6.65
2023-04-16T03:00:05.253Z,8.35
2023-04-16T03:02:31.988Z,7.57
2023-04-16T03:04:58.650Z,9.13
2023-04-16T03:07:25.345Z,8.50
2023-04-16T03:09:52.064Z,9.27
2023-04-16T03:12:18.558Z,12.98
2023-04-16T03:14:45.148Z,12.45
2023-04-16T03:17:11.689Z,9.68
2023-04-16T03:19:38.186Z,7.30
2023-04-16T03:22:05.030Z,6.82
2023-04-16T03:24:32.365Z,6.32
2023-04-16T03:26:59.107Z,7.15
2023-04-16T03:29:26.841Z,7.15
2023-04-16T03:31:53.487Z,6.17
2023-04-16T03:34:20.053Z,6.55
2023-04-16T03:36:46.580Z,6.72
2023-04-16T03:39:13.118Z,6.78
2023-04-16T03:41:39.664Z,6.00
2023-04-16T03:44:06.330Z,6.20
2023-04-16T03:46:33.024Z,7.03
2023-04-16T03:48:59.574Z,6.45
2023-04-16T03:51:26.585Z,5.63
2023-04-16T03:53:53.152Z,5.88
2023-04-16T03:56:19.802Z,5.63
2023-04-16T03:58:46.408Z,5.25
2023-04-16T04:01:12.982Z,6.32
2023-04-16T04:03:39.863Z,6.03
2023-04-16T04:06:08.488Z,5.53
2023-04-16T04:08:35.386Z,6.20
2023-04-16T04:11:01.886Z,6.47
2023-04-16T04:13:28.422Z,6.45
2023-04-16T04:15:54.980Z,5.90
2023-04-16T04:18:21.549Z,6.13
2023-04-16T04:20:48.067Z,6.33
2023-04-16T04:23:14.635Z,6.47
2023-04-16T04:25:41.161Z,6.50
2023-04-16T04:28:07.709Z,6.63
2023-04-16T04:30:35.915Z,6.20
2023-04-16T04:33:02.654Z,6.37
2023-04-16T04:35:29.427Z,6.30
2023-04-16T04:37:55.930Z,6.60
2023-04-16T04:40:22.626Z,6.93
2023-04-16T04:42:49.198Z,6.32
2023-04-16T04:45:16.180Z,6.57
2023-04-16T04:47:42.792Z,6.80
2023-04-16T04:50:09.830Z,6.78
2023-04-16T04:52:36.439Z,6.32
2023-04-16T04:55:03.130Z,6.18
2023-04-16T04:57:29.672Z,6.50
2023-04-16T04:59:56.525Z,6.75
2023-04-16T05:02:23.253Z,6.60
2023-04-16T05:04:50.193Z,6.30
2023-04-16T05:07:17.043Z,6.32
2023-04-16T05:09:43.576Z,6.67
2023-04-16T05:12:10.076Z,7.28
2023-04-16T05:14:36.595Z,6.78
2023-04-16T05:17:03.211Z,6.60
2023-04-16T05:19:29.824Z,7.00
2023-04-16T05:21:56.353Z,7.00
2023-04-16T05:24:23.400Z,7.40
2023-04-16T05:26:49.923Z,6.95
2023-04-16T05:29:16.447Z,7.82
2023-04-16T05:31:43.019Z,7.05
2023-04-16T05:34:09.562Z,6.67
2023-04-16T05:36:36.133Z,7.20
2023-04-16T05:39:02.829Z,7.72
2023-04-16T05:41:29.454Z,7.43
2023-04-16T05:43:56.422Z,7.38
2023-04-16T05:46:25.351Z,6.90
2023-04-16T05:48:52.149Z,7.70
2023-04-16T05:51:18.893Z,7.68
2023-04-16T05:53:45.768Z,7.70
2023-04-16T05:56:12.301Z,7.30
2023-04-16T05:58:38.791Z,7.83
2023-04-16T06:01:05.429Z,7.25
2023-04-16T06:03:31.981Z,7.43
2023-04-16T06:05:58.688Z,7.45
2023-04-16T06:08:25.444Z,10.10
2023-04-16T06:10:52.017Z,8.80
2023-04-16T06:13:18.817Z,7.65
2023-04-16T06:15:45.537Z,6.90
2023-04-16T06:18:12.125Z,6.32
2023-04-16T06:20:38.708Z,6.55
2023-04-16T06:23:05.303Z,6.37
2023-04-16T06:25:31.821Z,6.82
2023-04-16T06:27:58.635Z,6.70
2023-04-16T06:30:25.305Z,7.28
2023-04-16T06:32:52.249Z,7.30
2023-04-16T06:35:20.268Z,6.90
2023-04-16T06:37:47.251Z,6.20
2023-04-16T06:40:16.647Z,5.65
2023-04-16T06:42:45.304Z,9.10
2023-04-16T06:45:12.589Z,7.32
2023-04-16T06:47:39.232Z,8.40
2023-04-16T06:50:06.495Z,6.38
2023-04-16T06:52:33.309Z,10.52
2023-04-16T06:54:59.808Z,6.00
2023-04-16T06:57:26.342Z,6.80
2023-04-16T06:59:52.973Z,7.73
2023-04-16T07:02:19.597Z,6.90
2023-04-16T07:04:46.393Z,9.25
2023-04-16T07:07:12.898Z,7.20
2023-04-16T07:09:39.481Z,5.75
2023-04-16T07:12:07.269Z,8.20
2023-04-16T07:14:33.891Z,11.25
2023-04-16T07:17:00.498Z,6.03
2023-04-16T07:19:30.642Z,5.93
2023-04-16T07:21:57.262Z,5.85
2023-04-16T07:24:23.815Z,5.47
2023-04-16T07:26:50.406Z,5.18
2023-04-16T07:29:16.937Z,5.22
2023-04-16T07:31:43.578Z,4.75
2023-04-16T07:34:10.379Z,6.00
2023-04-16T07:36:37.085Z,5.20
2023-04-16T07:39:05.678Z,5.00
2023-04-16T07:41:32.325Z,4.25
2023-04-16T07:43:58.885Z,3.80
2023-04-16T07:46:28.352Z,3.35
2023-04-16T07:48:59.978Z,3.60
2023-04-16T07:51:26.570Z,4.10
2023-04-16T07:53:53.284Z,3.42
2023-04-16T07:56:19.936Z,3.28
2023-04-16T07:58:46.427Z,4.07
2023-04-16T08:01:13.719Z,3.07
2023-04-16T08:03:40.520Z,3.55
2023-04-16T08:06:07.223Z,3.47
2023-04-16T08:08:33.785Z,2.67
2023-04-16T08:11:00.303Z,2.97
2023-04-16T08:13:26.906Z,2.90
2023-04-16T08:15:53.462Z,2.40
2023-04-16T08:18:20.035Z,3.00
2023-04-16T08:20:46.575Z,2.60
2023-04-16T08:23:13.115Z,2.15
2023-04-16T08:25:39.695Z,2.00
2023-04-16T08:28:06.542Z,2.10
2023-04-16T08:30:33.634Z,1.88
2023-04-16T08:33:00.398Z,2.38
2023-04-16T08:35:27.369Z,1.55
2023-04-16T08:37:54.407Z,1.73
2023-04-16T08:40:21.095Z,1.95
2023-04-16T08:42:58.492Z,1.80
2023-04-16T08:45:27.088Z,1.77
2023-04-16T08:47:56.085Z,1.55
2023-04-16T08:50:24.703Z,1.20
2023-04-16T08:52:53.903Z,1.30
2023-04-16T08:55:29.901Z,1.83
2023-04-16T08:58:01.552Z,1.48
2023-04-16T09:00:31.635Z,1.80
2023-04-16T09:02:58.375Z,1.63
2023-04-16T09:05:26.421Z,1.67
2023-04-16T09:07:54.573Z,1.38
2023-04-16T09:10:21.971Z,1.30
2023-04-16T09:12:48.490Z,1.48
2023-04-16T09:15:15.229Z,0.80
2023-04-16T09:17:41.964Z,1.30
2023-04-16T09:20:09.666Z,1.10
2023-04-16T09:22:36.742Z,1.17
2023-04-16T09:25:03.632Z,1.48
2023-04-16T09:27:31.557Z,1.10
2023-04-16T09:29:58.379Z,1.10
2023-04-16T09:32:29.902Z,1.00
2023-04-16T09:35:01.817Z,1.50
2023-04-16T09:37:30.501Z,0.65
2023-04-16T09:40:03.065Z,1.20
2023-04-16T09:42:31.991Z,2.67
2023-04-16T09:45:01.394Z,0.82
2023-04-16T09:47:44.134Z,0.70
2023-04-16T09:50:18.196Z,0.85
2023-04-16T09:52:48.506Z,1.20
2023-04-16T09:55:15.510Z,1.23
2023-04-16T09:57:42.059Z,1.25
2023-04-16T10:00:10.306Z,1.08
2023-04-16T10:02:42.136Z,0.90
2023-04-16T10:05:09.543Z,1.10
2023-04-16T10:07:37.464Z,1.10
2023-04-16T10:10:04.875Z,0.90
2023-04-16T10:12:33.027Z,0.63
2023-04-16T10:14:59.898Z,0.77
2023-04-16T10:17:30.183Z,1.20
2023-04-16T10:19:58.553Z,0.50
2023-04-16T10:22:26.351Z,0.50
2023-04-16T10:24:53.725Z,0.63
2023-04-16T10:27:20.834Z,1.50
2023-04-16T10:29:48.978Z,1.50
2023-04-16T10:32:17.728Z,1.88
2023-04-16T10:34:44.551Z,1.15
2023-04-16T10:37:11.133Z,0.90
2023-04-16T10:39:38.295Z,0.68
2023-04-16T10:42:09.330Z,1.47
2023-04-16T10:44:36.729Z,1.15
2023-04-16T10:47:03.628Z,0.95
2023-04-16T10:49:30.444Z,0.40
2023-04-16T10:51:58.257Z,1.05
2023-04-16T10:54:27.160Z,0.60
2023-04-16T10:56:56.516Z,0.70
2023-04-16T10:59:24.105Z,0.95
2023-04-16T11:01:53.094Z,0.65
2023-04-16T11:04:19.814Z,0.80
2023-04-16T11:07:06.571Z,1.00
2023-04-16T11:09:49.843Z,0.55
2023-04-16T11:12:18.900Z,0.90
2023-04-16T11:14:51.527Z,1.85
2023-04-16T11:17:19.811Z,1.05
2023-04-16T11:19:47.365Z,1.57
2023-04-16T11:22:17.157Z,4.82
2023-04-16T11:24:45.374Z,1.00
2023-04-16T11:27:15.518Z,0.98
2023-04-16T11:29:44.601Z,0.60
2023-04-16T11:32:21.984Z,0.70
2023-04-16T11:34:48.607Z,0.82
2023-04-16T11:37:15.178Z,1.30
2023-04-16T11:39:54.357Z,0.60
2023-04-16T11:42:22.941Z,0.73
2023-04-16T11:44:57.628Z,0.90
2023-04-16T11:47:24.936Z,0.93
2023-04-16T11:49:51.761Z,0.80
2023-04-16T11:52:28.522Z,0.77
2023-04-16T11:54:55.749Z,1.10
2023-04-16T11:57:29.560Z,0.90
2023-04-16T12:00:01.635Z,0.50
2023-04-16T12:02:40.041Z,0.95
2023-04-16T12:05:27.802Z,0.70
2023-04-16T12:07:55.417Z,0.80
2023-04-16T12:10:22.043Z,0.90
2023-04-16T12:12:48.561Z,0.87
2023-04-16T12:15:15.698Z,0.70
2023-04-16T12:17:42.292Z,1.05
2023-04-16T12:20:10.019Z,0.60
2023-04-16T12:22:43.996Z,0.60
2023-04-16T12:25:18.222Z,0.97
2023-04-16T12:27:53.958Z,1.60
2023-04-16T12:30:23.236Z,0.63
2023-04-16T12:32:52.492Z,0.60
2023-04-16T12:35:33.442Z,0.70
2023-04-16T12:38:01.165Z,1.00
2023-04-16T12:40:27.902Z,0.80
2023-04-16T12:42:55.041Z,1.00
2023-04-16T12:45:22.406Z,0.63
2023-04-16T12:47:50.648Z,1.30
2023-04-16T12:50:18.119Z,0.70
2023-04-16T12:52:44.808Z,0.73
2023-04-16T12:55:12.580Z,0.93
2023-04-16T12:57:39.130Z,0.70
2023-04-16T13:00:06.799Z,0.55
2023-04-16T13:02:33.555Z,0.90
2023-04-16T13:05:00.290Z,0.90
2023-04-16T13:07:28.329Z,1.02
2023-04-16T13:09:55.059Z,0.70
2023-04-16T13:12:21.627Z,0.93
2023-04-16T13:14:48.180Z,0.73
2023-04-16T13:17:15.218Z,1.20
2023-04-16T13:19:41.751Z,1.20
2023-04-16T13:22:08.538Z,1.05
2023-04-16T13:24:35.135Z,1.13
2023-04-16T13:27:01.732Z,2.33
2023-04-16T13:29:28.512Z,1.52
2023-04-16T13:31:55.118Z,0.98
2023-04-16T13:34:21.830Z,0.80
2023-04-16T13:36:48.594Z,1.00
2023-04-16T13:39:15.820Z,1.00
2023-04-16T13:41:42.852Z,0.80
2023-04-16T13:44:09.475Z,0.93
2023-04-16T13:46:36.050Z,1.00
2023-04-16T13:49:02.700Z,1.90
2023-04-16T13:51:29.377Z,2.20
2023-04-16T13:53:56.385Z,4.35
2023-04-16T13:56:23.047Z,1.80
2023-04-16T13:58:49.744Z,1.42
2023-04-16T14:01:17.390Z,1.40
2023-04-16T14:03:44.156Z,1.00
2023-04-16T14:06:10.935Z,1.35
2023-04-16T14:08:38.436Z,1.55
2023-04-16T14:11:06.511Z,1.50
2023-04-16T14:13:33.135Z,1.10
2023-04-16T14:15:59.839Z,1.30
2023-04-16T14:18:26.376Z,1.02
2023-04-16T14:20:52.974Z,1.02
2023-04-16T14:23:19.503Z,1.00
2023-04-16T14:25:46.068Z,1.25
2023-04-16T14:28:14.308Z,1.17
2023-04-16T14:30:42.210Z,1.00
2023-04-16T14:33:08.716Z,1.10
2023-04-16T14:35:36.129Z,0.82
2023-04-16T14:38:03.104Z,1.17
2023-04-16T14:40:30.099Z,1.53
2023-04-16T14:42:56.701Z,1.00
2023-04-16T14:45:26.311Z,1.38
2023-04-16T14:47:54.029Z,1.58
2023-04-16T14:50:20.711Z,1.60
2023-04-16T14:52:47.284Z,1.33
2023-04-16T14:55:13.892Z,0.95
2023-04-16T14:57:41.632Z,1.40
2023-04-16T15:00:10.569Z,0.90
2023-04-16T15:02:37.697Z,1.50
2023-04-16T15:05:05.035Z,1.63
2023-04-16T15:07:31.825Z,2.17
2023-04-16T15:09:58.356Z,1.65
2023-04-16T15:12:25.132Z,2.38
2023-04-16T15:14:51.666Z,2.05
2023-04-16T15:17:18.269Z,1.33
2023-04-16T15:19:44.900Z,1.33
2023-04-16T15:22:11.465Z,1.63
2023-04-16T15:24:38.055Z,1.63
2023-04-16T15:27:08.447Z,2.10
2023-04-16T15:29:36.223Z,2.17
2023-04-16T15:32:02.785Z,1.55
2023-04-16T15:34:30.451Z,1.98
2023-04-16T15:36:57.019Z,1.92
2023-04-16T15:39:23.528Z,2.10
2023-04-16T15:42:00.502Z,2.73
2023-04-16T15:44:27.992Z,1.83
2023-04-16T15:46:54.584Z,1.80
2023-04-16T15:49:21.087Z,2.35
2023-04-16T15:51:47.650Z,1.67
2023-04-16T15:54:14.203Z,1.80
2023-04-16T15:56:40.791Z,1.55
2023-04-16T15:59:08.209Z,1.98
2023-04-16T16:01:34.974Z,2.70
2023-04-16T16:04:01.777Z,2.20
2023-04-16T16:06:29.077Z,2.10
2023-04-16T16:08:55.860Z,1.73
2023-04-16T16:11:22.443Z,2.20
2023-04-16T16:13:48.982Z,2.10
2023-04-16T16:16:15.552Z,1.90
2023-04-16T16:18:42.517Z,3.20
2023-04-16T16:21:09.075Z,6.82
2023-04-16T16:23:35.680Z,2.40
2023-04-16T16:26:02.655Z,2.15
2023-04-16T16:28:29.266Z,1.90
2023-04-16T16:30:55.880Z,2.00
2023-04-16T16:33:22.699Z,1.77
2023-04-16T16:35:49.264Z,1.88
2023-04-16T16:38:15.968Z,1.80
2023-04-16T16:40:42.483Z,1.90
2023-04-16T16:43:09.110Z,1.40
2023-04-16T16:45:36.285Z,1.73
2023-04-16T16:48:03.995Z,3.03
2023-04-16T16:50:33.706Z,2.20
2023-04-16T16:53:00.567Z,4.38
2023-04-16T16:55:27.155Z,1.57
2023-04-16T16:57:53.814Z,1.33
2023-04-16T17:00:21.931Z,1.10
2023-04-16T17:02:51.396Z,1.83
2023-04-16T17:05:18.298Z,1.50
2023-04-16T17:07:44.875Z,1.37
2023-04-16T17:10:13.467Z,1.55
2023-04-16T17:12:40.011Z,1.27
2023-04-16T17:15:06.986Z,1.95
2023-04-16T17:17:35.232Z,1.85
2023-04-16T17:20:03.498Z,1.57
2023-04-16T17:22:30.467Z,2.03
2023-04-16T17:24:57.011Z,1.92
2023-04-16T17:27:23.644Z,3.00
2023-04-16T17:29:50.174Z,2.00
2023-04-16T17:32:16.743Z,1.90
2023-04-16T17:34:43.367Z,1.58
2023-04-16T17:37:09.958Z,1.65
2023-04-16T17:39:36.511Z,6.03
2023-04-16T17:42:04.164Z,5.20
2023-04-16T17:44:30.696Z,3.13
2023-04-16T17:46:57.270Z,4.50
2023-04-16T17:49:23.824Z,3.33
2023-04-16T17:51:50.369Z,2.40
2023-04-16T17:54:16.874Z,2.40
2023-04-16T17:56:43.476Z,2.13
2023-04-16T17:59:10.050Z,1.80
2023-04-16T18:01:36.727Z,1.90
2023-04-16T18:04:03.507Z,1.90
2023-04-16T18:06:31.145Z,2.40
2023-04-16T18:08:57.747Z,2.17
2023-04-16T18:11:24.345Z,2.22
2023-04-16T18:13:52.969Z,4.28
2023-04-16T18:16:19.963Z,3.83
2023-04-16T18:18:46.648Z,3.92
2023-04-16T18:21:13.273Z,3.60
2023-04-16T18:23:39.887Z,4.22
2023-04-16T18:26:08.505Z,4.25
2023-04-16T18:28:41.643Z,3.97
2023-04-16T18:31:09.052Z,3.47
2023-04-16T18:33:53.841Z,3.47
2023-04-16T18:36:22.402Z,2.97
2023-04-16T18:39:00.002Z,2.65
2023-04-16T18:41:31.458Z,2.30
2023-04-16T18:43:58.142Z,2.75
2023-04-16T18:46:25.467Z,2.50
2023-04-16T18:48:52.341Z,2.78
2023-04-16T18:51:18.981Z,4.20
2023-04-16T18:53:47.087Z,4.20
2023-04-16T18:56:16.873Z,3.00
2023-04-16T18:58:44.058Z,2.90
2023-04-16T19:01:14.096Z,2.60
2023-04-16T19:03:40.810Z,3.28
2023-04-16T19:06:08.033Z,2.97
2023-04-16T19:08:34.554Z,3.35
2023-04-16T19:11:01.128Z,2.90
2023-04-16T19:13:27.737Z,2.90
2023-04-16T19:16:01.625Z,4.60
2023-04-16T19:18:28.470Z,4.90
2023-04-16T19:21:01.513Z,7.13
2023-04-16T19:23:28.704Z,8.50
2023-04-16T19:25:58.190Z,18.20
2023-04-16T19:28:25.270Z,17.27
2023-04-16T19:30:52.576Z,11.63
2023-04-16T19:33:19.193Z,6.20
2023-04-16T19:35:46.834Z,3.23
2023-04-16T19:38:13.588Z,3.20
2023-04-16T19:40:41.378Z,2.83
2023-04-16T19:43:08.046Z,2.22
2023-04-16T19:45:34.608Z,2.30
2023-04-16T19:48:01.326Z,2.20
2023-04-16T19:50:27.916Z,1.95
2023-04-16T19:52:54.544Z,1.40
2023-04-16T19:55:21.102Z,2.13
2023-04-16T19:57:48.154Z,1.83
2023-04-16T20:00:15.148Z,2.00
2023-04-16T20:02:41.906Z,2.08
2023-04-16T20:05:09.107Z,2.15
2023-04-16T20:07:35.760Z,2.80
2023-04-16T20:10:03.121Z,2.40
2023-04-16T20:12:29.794Z,1.63
2023-04-16T20:14:56.318Z,2.08
2023-04-16T20:17:22.868Z,2.03
2023-04-16T20:19:51.379Z,2.10
2023-04-16T20:22:18.894Z,2.85
2023-04-16T20:24:47.787Z,2.50
2023-04-16T20:27:15.415Z,2.70
2023-04-16T20:29:42.199Z,2.65
2023-04-16T20:32:08.976Z,2.50
2023-04-16T20:34:36.743Z,2.72
2023-04-16T20:37:03.551Z,2.30
2023-04-16T20:39:34.298Z,3.08
2023-04-16T20:42:04.247Z,3.22
2023-04-16T20:44:40.584Z,2.63
2023-04-16T20:47:11.849Z,2.58
2023-04-16T20:49:38.610Z,2.83
2023-04-16T20:52:05.640Z,2.50
2023-04-16T20:54:32.206Z,3.30
2023-04-16T20:56:59.001Z,4.40
2023-04-16T20:59:25.892Z,3.40
2023-04-16T21:01:52.554Z,3.57
2023-04-16T21:04:19.404Z,3.60
2023-04-16T21:06:46.838Z,3.53
2023-04-16T21:09:13.636Z,3.42
2023-04-16T21:11:40.616Z,2.95
2023-04-16T21:14:07.197Z,2.83
2023-04-16T21:16:34.009Z,3.20
2023-04-16T21:19:00.617Z,2.80
2023-04-16T21:21:27.684Z,2.83
2023-04-16T21:23:54.245Z,3.28
2023-04-16T21:26:21.106Z,3.70
2023-04-16T21:28:48.935Z,3.50
2023-04-16T21:31:15.534Z,3.63
2023-04-16T21:33:42.105Z,2.67
2023-04-16T21:36:08.890Z,3.00
2023-04-16T21:38:35.648Z,3.57
2023-04-16T21:41:02.295Z,3.08
2023-04-16T21:43:30.731Z,4.05
2023-04-16T21:45:57.709Z,3.78
2023-04-16T21:48:24.506Z,4.05
2023-04-16T21:50:59.281Z,3.03
2023-04-16T21:53:28.201Z,3.75
2023-04-16T21:55:54.825Z,3.67
2023-04-16T21:58:21.394Z,2.80
2023-04-16T22:00:47.973Z,3.15
2023-04-16T22:03:15.054Z,3.20
2023-04-16T22:05:41.710Z,3.13
2023-04-16T22:08:23.319Z,2.83
2023-04-16T22:10:50.901Z,2.75
2023-04-16T22:13:18.025Z,3.17
2023-04-16T22:15:44.576Z,2.67
2023-04-16T22:18:11.604Z,2.70
2023-04-16T22:20:39.217Z,2.90
2023-04-16T22:23:06.821Z,3.05
2023-04-16T22:25:33.631Z,3.22
2023-04-16T22:28:01.674Z,2.90
2023-04-16T22:30:28.310Z,2.42
2023-04-16T22:32:54.934Z,2.65
2023-04-16T22:35:21.560Z,2.70
2023-04-16T22:37:48.120Z,2.35
2023-04-16T22:40:14.975Z,2.17
2023-04-16T22:42:41.651Z,2.63
2023-04-16T22:45:08.935Z,2.60
2023-04-16T22:47:35.525Z,2.50
2023-04-16T22:50:03.429Z,2.67
2023-04-16T22:52:30.010Z,2.70
2023-04-16T22:54:56.574Z,2.50
2023-04-16T22:57:25.695Z,2.95
2023-04-16T22:59:53.405Z,2.92
2023-04-16T23:02:20.884Z,3.00
2023-04-16T23:04:48.119Z,2.63
2023-04-16T23:07:15.756Z,2.53
2023-04-16T23:09:42.514Z,3.22
2023-04-16T23:12:09.082Z,2.65
2023-04-16T23:14:37.028Z,2.97
2023-04-16T23:17:03.788Z,2.30
2023-04-16T23:19:31.292Z,2.40
2023-04-16T23:21:57.986Z,2.70
2023-04-16T23:24:24.588Z,2.88
2023-04-16T23:26:52.582Z,2.70
2023-04-16T23:29:19.900Z,2.80
2023-04-16T23:31:46.449Z,3.00
2023-04-16T23:34:13.070Z,2.47
2023-04-16T23:36:40.787Z,2.60
2023-04-16T23:39:07.475Z,2.92
2023-04-16T23:41:34.363Z,2.70
2023-04-16T23:44:00.925Z,2.95
2023-04-16T23:46:27.584Z,2.80
2023-04-16T23:48:55.428Z,2.50
2023-04-16T23:51:22.278Z,3.05
2023-04-16T23:53:48.883Z,2.57
2023-04-16T23:56:16.424Z,2.75
2023-04-16T23:58:43.027Z,2.88
